• °C
  • Pobieranie danych...
wx


PRINT OUT SECTION, show »

TAF EPBC 230200Z NIL=

TAF EPCE 230500Z 2306/2315 27014KT CAVOK TEMPO 2309/2315 30015G25KT
SCT040 =

TAF EPCE 230800Z 2309/2318 29014KT CAVOK TEMPO 2309/2318 30018G30KT
SCT040 BECMG 2317/2318 26008KT=

TAF EPDA 230500Z 2306/2315 30010KT CAVOK=

TAF EPDA 230800Z 2309/2318 27010KT CAVOK=

TAF EPDE 230500Z 2306/2315 26010KT CAVOK BECMG 2307/2309 27014KT 9999
SCT027
TEMPO 2309/2315 27022KT TEMPO 2312/2315 28016G26KT 6000 SHRA
BKN025CB=

TAF EPDE 230800Z 2309/2318 28016KT 9999 SCT033
TEMPO 2311/2318 29018G28KT 6000 SHRA BKN020CB
PROB30 TEMPO 2314/2317 VRB34KT 4000 TSRA TSRASN TSGS BKN017CB=

TAF EPIR 230500Z 2306/2315 25012KT CAVOK TEMPO 2309/2315 27020G36KT
PROB30 TEMPO 2312/2315 6000 SHRA SCT020CB=

TAF EPIR 230800Z 2309/2318 27016KT CAVOK TEMPO 2309/2311 SCT017
PROB30 TEMPO 2310/2315 31020G36KT 6000 SHRA SCT020CB=

TAF AMD EPKS 230642Z 2306/2315 27012KT 9999 BKN015
BECMG 2307/2309 SCT030
TEMPO 2309/2315 28015G25KT -SHRA BKN020CB=

TAF EPKS 230800Z 2309/2318 27012KT 9999 BKN030
TEMPO 2309/2315 28015G25KT BKN020TCU
PROB30 TEMPO 2310/2315 28015G28KT -SHRA BKN020CB=

TAF EPLK 230500Z 2306/2315 27010KT 9999 SCT040
TEMPO 2309/2315 28015G28KT
PROB30 TEMPO 2310/2315 5000 SHRA BKN020CB=

TAF EPLK 230800Z 2309/2318 27015KT 9999 SCT030
BECMG 2309/2315 27015G25KT
PROB30 TEMPO 2311/2315 5000 SHRA BKN020CB=

TAF EPLY 230500Z 2306/2315 27012KT 9999 SCT040 TEMPO 2309/2315
26014G30KT PROB30 TEMPO 2310/2315 6000 -SHRA BKN020CB=

TAF EPLY 230800Z 2309/2318 27012KT 9999 SCT020 PROB30 TEMPO 2311/2316
30014G26KT 6000 -SHRA BKN020CB=

TAF EPMB 230200Z NIL=

TAF EPMI 230500Z 2306/2315 29010KT CAVOK
TEMPO 2309/2315 30014G30KT=

TAF EPMI 230800Z 2309/2318 28010KT 9999 BKN020
TEMPO 2309/2311 28014G30KT BKN020TCU
TEMPO 2311/2318 28014G30KT
BECMG 2311/2313 CAVOK=

TAF EPMM 230500Z 2306/2315 28013KT CAVOK
TEMPO 2309/2315 27015G26KT
PROB30 TEMPO 2311/2315 6000 -SHRA BKN025CB=

TAF EPMM 230800Z 2309/2318 28020KT 9999 SCT040
TEMPO 2311/2315 6000 -SHRA BKN020CB
PROB40 TEMPO 2312/2318 3000 SHGS BKN012CB=

TAF EPNA 230200Z NIL=

TAF EPOK 230500Z 2306/2315 30012KT CAVOK TEMPO 2308/2315 30015G25KT=

TAF EPOK 230800Z 2309/2318 31012KT CAVOK TEMPO 2309/2318 31015G25KT=

TAF AMD EPPR 230555Z 2306/2315 30014KT CAVOK TEMPO 2308/2315
30018G28KT=

TAF EPPR 230500Z 2306/2315 30014KT CAVOK TEMPO 2308/2815 30018G28KT=

TAF EPPR 230800Z 2309/2318 30016KT CAVOK TEMPO 2309/2318 30018G28KT=

TAF EPPW 230500Z 2306/2315 28010KT 9999 BKN009 BECMG 2308/2310 SCT020
TEMPO 2310/2315 VRB15G25KT BKN030CB PROB30 2311/2315 VRB20G34KT
4000 SHRA BKN020CB=

TAF EPPW 230800Z 2309/2318 29014KT 9999 SCT020 TEMPO 2311/2316
VRB15G25KT BKN030CB PROB30 2312/2317 VRB20G32KT 5000 SHRA
BKN020CB=

TAF EPRA 230500Z 2306/2315 27012KT 9999 SCT040 PROB30 TEMPO 2312/2315
27014G26KT 8000 -SHRA BKN020CB=

TAF EPSN 230500Z 2306/2315 27010KT CAVOK TEMPO 2306/2315 31014G28KT
SCT030=

TAF EPSN 230800Z 2309/2318 29014KT 9999 BKN025
BECMG 2310/2312 CAVOK
TEMPO 2310/2312 29014G28KT BKN020TCU
TEMPO 2312/2316 31014G30KT=

TAF EPTM 230500Z 2306/2315 27012KT CAVOK
BECMG 2308/2310 SCT035
TEMPO 2309/2315 27015G30KT
PROB30 TEMPO 2312/2315 6000 -SHRA BKN020CB=

TAF EPTM 230800Z 2309/2318 27012KT 9999 SCT030 TEMPO 2309/2316
27015G26KT PROB30 TEMPO 2312/2318 5000 SHRA BKN020CB=



IMGW-PIB Sites